Terminal Aerodrome Forecast
Issued by NWS Brownsville, TX

Home | Current Version | Previous Version | Text Only | Print | Product List | Glossary On
Versions: 1 2 3 4 5 6 7 8 9 10 11 12 13 14
000
FTUS44 KBRO 301122
TAFBRO
TAF
KBRO 301122Z 3012/3112 00000KT P6SM FEW025
     FM301400 16010KT P6SM VCSH SCT025 SCT040
     FM301600 14012G18KT P6SM VCSH SCT030 BKN040
     FM302200 12010KT P6SM SCT040 BKN250
     FM310900 14006KT P6SM BKN025=

USA.gov is the U.S. government's official web portal to all federal, state and local government web resources and services.